Time;durP1;ratioP1;P1;durP2;ratioP2;P2;SDS_P1;SDS_P2;PMS_P1;PMS_P2;Temp;Humidity;BMP_temperature;BMP_pressure;BME280_temperature;BME280_humidity;BME280_pressure;Samples;Min_cycle;Max_cycle;Signal;HPM_P1;HPM_P2
2021/10/19 00:01:20;;;;;;;17.17;11.70;;;12.80;80.20;;;;;;5074029;28;20522;-52
2021/10/19 00:03:46;;;;;;;17.65;11.82;;;12.80;80.00;;;;;;5073978;28;20029;-48
2021/10/19 00:06:13;;;;;;;15.75;10.63;;;12.80;79.70;;;;;;5073585;28;20048;-46
2021/10/19 00:08:39;;;;;;;16.73;10.07;;;12.80;80.00;;;;;;5074104;28;20020;-49
2021/10/19 00:11:05;;;;;;;16.60;11.60;;;12.80;80.00;;;;;;5055865;28;20081;-47
2021/10/19 00:13:31;;;;;;;18.83;11.25;;;12.80;80.20;;;;;;5074008;28;20387;-48
2021/10/19 00:15:57;;;;;;;18.08;11.23;;;12.80;80.20;;;;;;5074177;28;20021;-51
2021/10/19 00:18:23;;;;;;;15.65;11.27;;;12.80;80.40;;;;;;5055622;28;20070;-48
2021/10/19 00:20:49;;;;;;;18.73;12.32;;;12.80;80.30;;;;;;5073401;28;20358;-49
2021/10/19 00:23:15;;;;;;;19.10;10.85;;;12.80;80.60;;;;;;5073708;28;20017;-48
2021/10/19 00:25:40;;;;;;;17.58;12.10;;;12.80;80.60;;;;;;5073454;28;20052;-49
2021/10/19 00:28:07;;;;;;;18.02;11.52;;;13.00;79.70;;;;;;5073709;28;20063;-48
2021/10/19 00:30:33;;;;;;;17.25;10.57;;;13.10;79.30;;;;;;5073690;28;20036;-49
2021/10/19 00:32:59;;;;;;;14.98;11.00;;;13.00;79.80;;;;;;5055281;28;20063;-47
2021/10/19 00:35:25;;;;;;;15.02;10.27;;;13.00;79.90;;;;;;5073443;28;20025;-48
2021/10/19 00:37:54;;;;;;;18.45;11.80;;;13.00;79.90;;;;;;5074803;28;20028;-48
2021/10/19 00:40:20;;;;;;;14.80;11.00;;;13.00;80.20;;;;;;5055114;28;20476;-49
2021/10/19 00:42:46;;;;;;;17.15;11.25;;;12.90;80.30;;;;;;5055212;28;20066;-50
2021/10/19 00:45:12;;;;;;;18.33;10.35;;;12.90;80.40;;;;;;5073243;28;20074;-50
2021/10/19 00:47:48;;;;;;;17.42;9.43;;;12.90;80.20;;;;;;5074069;28;20349;-48
2021/10/19 00:50:14;;;;;;;15.07;10.27;;;12.90;80.20;;;;;;5073473;28;20020;-49
2021/10/19 00:52:40;;;;;;;14.18;9.50;;;12.90;80.20;;;;;;5073177;28;20095;-48
2021/10/19 00:55:08;;;;;;;14.50;9.70;;;13.00;80.10;;;;;;5073214;28;20025;-49
2021/10/19 00:57:33;;;;;;;11.77;9.45;;;13.00;80.20;;;;;;5055206;28;20131;-48
2021/10/19 00:59:59;;;;;;;14.68;9.43;;;13.20;79.70;;;;;;5072858;28;20539;-50
2021/10/19 01:02:25;;;;;;;13.65;9.77;;;13.30;79.00;;;;;;5073003;28;20104;-52
2021/10/19 01:04:50;;;;;;;15.77;9.98;;;13.30;78.60;;;;;;5054734;28;20087;-50
2021/10/19 01:07:18;;;;;;;14.07;9.48;;;13.40;78.40;;;;;;5073150;28;20024;-48
2021/10/19 01:09:43;;;;;;;17.55;9.43;;;13.50;78.00;;;;;;5073164;28;20040;-48
2021/10/19 01:12:10;;;;;;;13.55;10.23;;;13.60;78.10;;;;;;5073160;28;20025;-48
2021/10/19 01:14:36;;;;;;;14.65;9.95;;;13.50;78.00;;;;;;5054882;28;20083;-47
2021/10/19 01:17:02;;;;;;;16.25;11.35;;;13.30;78.80;;;;;;5072701;28;20032;-49
2021/10/19 01:19:28;;;;;;;14.85;10.65;;;13.30;79.50;;;;;;5072936;28;20035;-50
2021/10/19 01:21:59;;;;;;;16.30;9.27;;;13.30;79.00;;;;;;5054717;28;20016;-47
2021/10/19 01:24:25;;;;;;;16.38;10.70;;;13.30;79.50;;;;;;5054723;28;20153;-48
2021/10/19 01:26:51;;;;;;;14.43;9.25;;;13.30;79.40;;;;;;5073306;28;20024;-50
2021/10/19 01:29:17;;;;;;;14.75;9.73;;;13.70;78.50;;;;;;5072836;28;20021;-50
2021/10/19 01:31:52;;;;;;;18.00;10.30;;;13.60;78.20;;;;;;5072838;28;20032;-48
2021/10/19 01:34:18;;;;;;;14.98;10.40;;;13.70;78.40;;;;;;5073008;28;20108;-48
2021/10/19 01:36:44;;;;;;;14.13;8.80;;;13.70;78.30;;;;;;5072804;28;20492;-48
2021/10/19 01:39:11;;;;;;;12.23;8.63;;;13.60;78.40;;;;;;5054728;28;20032;-48
2021/10/19 01:41:38;;;;;;;11.98;8.80;;;13.70;78.70;;;;;;5073210;28;20017;-47
2021/10/19 01:44:04;;;;;;;12.25;9.10;;;13.70;78.60;;;;;;5054868;28;20024;-48
2021/10/19 01:46:30;;;;;;;13.32;9.18;;;13.60;79.00;;;;;;5076878;28;20021;-48
2021/10/19 01:48:56;;;;;;;13.38;9.05;;;13.80;78.50;;;;;;5076929;28;20024;-48
2021/10/19 01:51:23;;;;;;;13.27;9.70;;;13.70;78.70;;;;;;5058667;28;20021;-51
2021/10/19 01:53:49;;;;;;;16.25;10.38;;;13.70;78.90;;;;;;5076612;28;20020;-50
2021/10/19 01:56:15;;;;;;;14.52;8.18;;;13.80;78.60;;;;;;5076590;28;20020;-48
2021/10/19 01:58:41;;;;;;;16.20;9.48;;;13.70;78.90;;;;;;5076417;28;20461;-47
2021/10/19 02:01:07;;;;;;;13.25;9.45;;;13.50;79.70;;;;;;5076558;28;20029;-48
2021/10/19 02:03:33;;;;;;;15.40;9.43;;;13.60;79.30;;;;;;5077000;28;20054;-48
2021/10/19 02:05:58;;;;;;;13.20;9.50;;;13.50;79.70;;;;;;5058095;28;20040;-49
2021/10/19 02:08:24;;;;;;;18.10;10.18;;;13.60;79.50;;;;;;5077392;28;20025;-50
2021/10/19 02:10:52;;;;;;;13.35;10.10;;;13.50;79.70;;;;;;5059581;28;20226;-47
2021/10/19 02:13:17;;;;;;;12.57;8.85;;;13.60;79.40;;;;;;5076266;28;20064;-47
2021/10/19 02:15:43;;;;;;;15.82;9.73;;;13.40;79.90;;;;;;5076100;28;20029;-48
2021/10/19 02:18:09;;;;;;;13.15;9.00;;;13.40;80.40;;;;;;5076049;28;20473;-50
2021/10/19 02:20:37;;;;;;;13.10;10.02;;;13.40;80.40;;;;;;5057740;28;20123;-48
2021/10/19 02:23:04;;;;;;;13.23;8.68;;;13.50;80.10;;;;;;5076188;28;20028;-45
2021/10/19 02:25:29;;;;;;;17.17;10.57;;;13.50;80.10;;;;;;5075598;28;20070;-45
2021/10/19 02:27:55;;;;;;;16.67;11.02;;;13.40;80.60;;;;;;5075764;28;20016;-50
2021/10/19 02:30:22;;;;;;;15.23;10.82;;;13.30;81.10;;;;;;5075766;28;20495;-47
2021/10/19 02:32:48;;;;;;;14.10;10.35;;;13.40;80.70;;;;;;5075571;28;20473;-47
2021/10/19 02:35:16;;;;;;;14.55;10.07;;;13.50;80.50;;;;;;5075866;28;20479;-45
2021/10/19 02:37:43;;;;;;;15.48;10.27;;;13.70;80.10;;;;;;5075817;28;20055;-47
2021/10/19 02:40:10;;;;;;;17.05;10.70;;;13.70;80.00;;;;;;5075671;28;20028;-47
2021/10/19 02:42:36;;;;;;;15.88;10.80;;;13.70;79.70;;;;;;5075496;28;20366;-47
2021/10/19 02:45:04;;;;;;;17.00;10.98;;;13.60;80.40;;;;;;5057253;28;20021;-47
2021/10/19 02:47:30;;;;;;;19.67;11.98;;;13.70;80.20;;;;;;5057557;28;20024;-49
2021/10/19 02:49:55;;;;;;;14.45;10.48;;;13.80;79.90;;;;;;5075526;28;20028;-48
2021/10/19 02:52:21;;;;;;;15.02;11.20;;;13.80;79.70;;;;;;5075483;28;20100;-49
2021/10/19 02:54:51;;;;;;;17.23;10.52;;;13.80;79.60;;;;;;5057060;28;20052;-49
2021/10/19 02:57:20;;;;;;;16.33;10.95;;;13.60;80.40;;;;;;5074798;28;20054;-48
2021/10/19 02:59:46;;;;;;;16.02;9.98;;;13.70;80.40;;;;;;5057081;28;20074;-47
2021/10/19 03:02:12;;;;;;;16.98;11.63;;;13.60;80.60;;;;;;5074962;28;20021;-48
2021/10/19 03:04:37;;;;;;;16.25;12.82;;;13.70;80.70;;;;;;5075122;28;20099;-49
2021/10/19 03:07:03;;;;;;;16.65;11.68;;;13.60;80.90;;;;;;5074858;28;20036;-49
2021/10/19 03:09:29;;;;;;;14.40;11.13;;;13.60;81.00;;;;;;5074892;28;20055;-51
2021/10/19 03:11:54;;;;;;;16.60;11.05;;;13.70;80.90;;;;;;5056988;28;20082;-48
2021/10/19 03:14:20;;;;;;;14.63;10.88;;;13.70;80.90;;;;;;5074990;28;20115;-47
2021/10/19 03:16:46;;;;;;;15.10;11.02;;;13.60;81.10;;;;;;5074533;28;20032;-47
2021/10/19 03:19:11;;;;;;;14.02;11.27;;;13.70;81.10;;;;;;5055896;28;20028;-46
2021/10/19 03:21:37;;;;;;;15.57;11.30;;;13.60;81.70;;;;;;5056442;28;20078;-48
2021/10/19 03:24:04;;;;;;;15.50;10.30;;;13.60;81.80;;;;;;5074365;28;20102;-49
2021/10/19 03:26:30;;;;;;;13.00;9.52;;;13.50;82.20;;;;;;5074255;28;20055;-46
2021/10/19 03:28:55;;;;;;;14.68;10.40;;;13.60;82.30;;;;;;5074422;28;20357;-47
2021/10/19 03:31:21;;;;;;;15.70;10.77;;;13.60;82.30;;;;;;5074801;28;20028;-47
2021/10/19 03:33:47;;;;;;;18.98;10.13;;;13.50;82.90;;;;;;5074483;28;20036;-48
2021/10/19 03:36:12;;;;;;;13.75;9.80;;;13.70;82.50;;;;;;5074144;28;20043;-48
2021/10/19 03:38:38;;;;;;;15.40;10.05;;;13.60;82.40;;;;;;5074151;28;20035;-47
2021/10/19 03:41:06;;;;;;;16.98;9.55;;;13.70;82.80;;;;;;5073966;28;20032;-45
2021/10/19 03:43:32;;;;;;;15.68;10.15;;;13.60;83.10;;;;;;5074124;28;20031;-47
2021/10/19 03:45:58;;;;;;;16.98;10.50;;;13.70;83.00;;;;;;5073953;28;20024;-46
2021/10/19 03:48:24;;;;;;;19.13;11.43;;;13.60;83.30;;;;;;5074201;28;20031;-47
2021/10/19 03:50:49;;;;;;;15.40;10.50;;;13.60;83.90;;;;;;5074189;28;20032;-47
2021/10/19 03:53:15;;;;;;;16.05;10.07;;;13.60;83.60;;;;;;5074232;28;20032;-47
2021/10/19 03:55:43;;;;;;;13.75;9.70;;;13.50;84.50;;;;;;5073791;28;20100;-47
2021/10/19 03:58:10;;;;;;;18.85;11.15;;;13.40;84.70;;;;;;5073883;28;20478;-50
2021/10/19 04:00:35;;;;;;;17.73;10.95;;;13.30;85.10;;;;;;5073816;28;20104;-47
2021/10/19 04:03:01;;;;;;;17.45;11.48;;;13.30;85.60;;;;;;5073926;28;20154;-50
2021/10/19 04:05:27;;;;;;;15.45;11.57;;;13.30;85.60;;;;;;5073790;28;20048;-47
2021/10/19 04:07:52;;;;;;;18.55;10.55;;;13.30;86.50;;;;;;5073092;28;20314;-46
2021/10/19 04:10:19;;;;;;;18.77;12.10;;;13.10;87.40;;;;;;5073868;28;20476;-46
2021/10/19 04:12:45;;;;;;;19.80;12.73;;;13.00;88.40;;;;;;5073772;28;20420;-47
2021/10/19 04:15:11;;;;;;;18.75;12.90;;;12.90;89.00;;;;;;5073511;28;20122;-46
2021/10/19 04:17:37;;;;;;;16.10;10.40;;;12.80;89.40;;;;;;5073870;28;20033;-47
2021/10/19 04:20:03;;;;;;;21.73;13.85;;;12.80;89.80;;;;;;5073077;28;20090;-48
2021/10/19 04:22:29;;;;;;;22.48;15.25;;;12.70;90.30;;;;;;5073281;28;20132;-47
2021/10/19 04:24:55;;;;;;;18.60;13.70;;;12.70;90.90;;;;;;5072927;28;20063;-47
2021/10/19 04:27:21;;;;;;;24.45;14.68;;;12.70;91.10;;;;;;5073597;28;20511;-46
2021/10/19 04:29:47;;;;;;;20.85;15.02;;;12.70;91.30;;;;;;5073358;28;20035;-47
2021/10/19 04:32:13;;;;;;;20.95;13.55;;;12.80;91.00;;;;;;5073705;28;20373;-46
2021/10/19 04:34:38;;;;;;;19.48;13.93;;;12.80;91.00;;;;;;5073299;28;20433;-48
2021/10/19 04:37:04;;;;;;;18.88;13.05;;;12.80;91.30;;;;;;5073603;28;20067;-47
2021/10/19 04:39:31;;;;;;;20.15;14.15;;;12.80;91.20;;;;;;5073117;28;20124;-46
2021/10/19 04:41:57;;;;;;;21.42;13.15;;;12.80;91.30;;;;;;5073345;28;20028;-49
2021/10/19 04:44:22;;;;;;;20.27;14.02;;;12.80;91.60;;;;;;5055237;28;20473;-47
2021/10/19 04:46:48;;;;;;;19.67;13.88;;;12.80;91.50;;;;;;5073488;28;20087;-48
2021/10/19 04:49:14;;;;;;;22.38;16.13;;;12.90;91.40;;;;;;5055043;28;20025;-46
2021/10/19 04:51:41;;;;;;;21.17;15.05;;;13.00;91.00;;;;;;5055206;28;20366;-47
2021/10/19 04:54:07;;;;;;;27.42;15.48;;;13.00;90.80;;;;;;5073380;28;20020;-47
2021/10/19 04:56:33;;;;;;;25.38;16.25;;;13.00;90.80;;;;;;5073025;28;20032;-48
2021/10/19 04:59:07;;;;;;;19.88;13.82;;;12.90;90.90;;;;;;5080249;28;20060;-36
2021/10/19 05:01:33;;;;;;;25.88;15.73;;;12.80;91.10;;;;;;5075274;28;20024;-37
2021/10/19 05:03:59;;;;;;;23.33;16.05;;;13.00;91.00;;;;;;5054809;28;20032;-37
2021/10/19 05:06:26;;;;;;;26.50;16.38;;;13.00;90.90;;;;;;5054760;28;20051;-37
2021/10/19 05:08:52;;;;;;;21.13;15.15;;;13.00;91.00;;;;;;5054852;28;20031;-37
2021/10/19 05:11:17;;;;;;;20.70;13.65;;;12.90;91.10;;;;;;5054992;28;20115;-37
2021/10/19 05:13:43;;;;;;;22.90;14.90;;;12.90;91.20;;;;;;5073020;28;20095;-37
2021/10/19 05:16:09;;;;;;;22.98;15.13;;;12.90;91.20;;;;;;5072997;28;20074;-39
2021/10/19 05:18:34;;;;;;;19.80;13.30;;;13.00;91.30;;;;;;5073130;28;20109;-37
2021/10/19 05:21:00;;;;;;;22.23;13.38;;;13.00;91.00;;;;;;5076365;28;20082;-36
2021/10/19 05:23:27;;;;;;;21.88;13.35;;;13.00;91.20;;;;;;5058796;28;20028;-36
2021/10/19 05:25:52;;;;;;;18.92;12.48;;;12.90;91.40;;;;;;5058785;28;20056;-36
2021/10/19 05:28:18;;;;;;;20.25;13.18;;;13.00;91.10;;;;;;5058687;28;20063;-36
2021/10/19 05:30:44;;;;;;;18.85;13.60;;;13.00;91.30;;;;;;5076852;28;20071;-37
2021/10/19 05:33:09;;;;;;;22.50;14.07;;;13.10;91.40;;;;;;5076468;28;20051;-37
2021/10/19 05:35:35;;;;;;;21.05;14.90;;;13.30;90.90;;;;;;5077016;28;20155;-37
2021/10/19 05:38:01;;;;;;;18.50;12.30;;;13.20;90.70;;;;;;5076681;28;20024;-37
2021/10/19 05:40:26;;;;;;;18.05;11.70;;;13.10;91.00;;;;;;5076707;28;20025;-37
2021/10/19 05:42:52;;;;;;;20.58;12.77;;;13.00;91.30;;;;;;5076610;28;20031;-37
2021/10/19 05:45:18;;;;;;;24.45;14.32;;;13.20;91.50;;;;;;5076678;28;20027;-37
2021/10/19 05:47:45;;;;;;;19.40;11.23;;;13.30;90.90;;;;;;5076468;28;20025;-38
2021/10/19 05:50:14;;;;;;;17.38;11.85;;;13.30;90.70;;;;;;5076478;28;20122;-37
2021/10/19 05:52:40;;;;;;;12.93;10.57;;;13.30;90.80;;;;;;5076318;28;20050;-37
2021/10/19 05:55:07;;;;;;;18.45;11.00;;;13.30;90.90;;;;;;5076275;28;20028;-37
2021/10/19 05:57:33;;;;;;;16.52;11.20;;;13.30;91.20;;;;;;5058192;28;20039;-37
2021/10/19 05:59:58;;;;;;;15.73;10.32;;;13.20;91.50;;;;;;5076569;28;20024;-37
2021/10/19 06:02:24;;;;;;;15.95;11.35;;;13.30;91.80;;;;;;5076176;28;20025;-36
2021/10/19 06:04:50;;;;;;;15.77;11.27;;;13.30;91.80;;;;;;5075895;28;20044;-37
2021/10/19 06:07:16;;;;;;;19.33;11.85;;;13.20;92.10;;;;;;5076204;28;20020;-37
2021/10/19 06:09:42;;;;;;;17.35;11.65;;;13.10;92.60;;;;;;5075864;28;20047;-37
2021/10/19 06:12:08;;;;;;;19.42;13.80;;;13.10;92.90;;;;;;5075617;28;20100;-36
2021/10/19 06:14:34;;;;;;;17.88;12.70;;;13.00;93.40;;;;;;5075686;28;20105;-37
2021/10/19 06:16:59;;;;;;;18.42;12.20;;;12.90;93.50;;;;;;5075627;28;20020;-37
2021/10/19 06:19:25;;;;;;;22.02;12.93;;;12.90;93.80;;;;;;5057660;28;20365;-37
2021/10/19 06:21:51;;;;;;;21.70;14.50;;;12.90;94.00;;;;;;5075611;28;20082;-37
2021/10/19 06:24:18;;;;;;;18.77;13.05;;;12.90;94.20;;;;;;5058668;28;20425;-36
2021/10/19 06:26:44;;;;;;;21.90;15.57;;;12.90;94.20;;;;;;5076108;28;20020;-37
2021/10/19 06:29:12;;;;;;;23.60;14.82;;;12.90;94.30;;;;;;5075560;28;20020;-37
2021/10/19 06:31:38;;;;;;;25.27;13.80;;;12.90;94.50;;;;;;5075006;28;20177;-38
2021/10/19 06:34:04;;;;;;;24.77;16.60;;;12.90;94.50;;;;;;5075533;28;20043;-37
2021/10/19 06:36:31;;;;;;;28.65;18.58;;;12.90;94.60;;;;;;5075533;28;20031;-38
2021/10/19 06:38:56;;;;;;;22.58;14.98;;;13.00;94.70;;;;;;5075911;28;20032;-38
2021/10/19 06:41:22;;;;;;;27.20;16.15;;;13.00;94.70;;;;;;5075208;28;20388;-38
2021/10/19 06:43:48;;;;;;;24.52;15.70;;;13.10;94.60;;;;;;5075216;28;20089;-37
2021/10/19 06:46:14;;;;;;;23.38;15.43;;;13.10;94.60;;;;;;5075017;28;20021;-37
2021/10/19 06:48:39;;;;;;;20.95;13.57;;;13.00;94.60;;;;;;5075659;28;20024;-37
2021/10/19 06:51:05;;;;;;;21.08;12.95;;;13.00;94.60;;;;;;5075358;28;20020;-36
2021/10/19 06:53:32;;;;;;;22.52;14.20;;;13.00;94.70;;;;;;5074932;28;20028;-37
2021/10/19 06:55:59;;;;;;;27.75;17.52;;;13.00;94.90;;;;;;5074852;28;20086;-37
2021/10/19 06:58:25;;;;;;;24.60;13.85;;;13.00;94.80;;;;;;5075167;28;20451;-37
2021/10/19 07:00:54;;;;;;;21.67;14.18;;;13.00;94.90;;;;;;5056982;28;20057;-37
2021/10/19 07:03:21;;;;;;;20.77;14.25;;;13.00;95.00;;;;;;5075149;28;20028;-39
2021/10/19 07:05:47;;;;;;;22.55;15.35;;;13.20;95.10;;;;;;5075186;28;20086;-37
2021/10/19 07:08:13;;;;;;;22.08;15.02;;;13.20;95.00;;;;;;5074912;28;20025;-39
2021/10/19 07:10:40;;;;;;;18.88;13.07;;;13.20;94.80;;;;;;5074683;28;20096;-37
2021/10/19 07:13:06;;;;;;;21.42;13.57;;;13.10;94.90;;;;;;5074786;28;20111;-39
2021/10/19 07:15:35;;;;;;;17.75;13.02;;;13.20;95.00;;;;;;5056526;28;20069;-37
2021/10/19 07:18:06;;;;;;;17.98;12.20;;;13.20;95.10;;;;;;5074993;28;20533;-38
2021/10/19 07:20:32;;;;;;;22.35;14.32;;;13.30;95.00;;;;;;5074639;28;20484;-37
2021/10/19 07:23:02;;;;;;;19.13;12.13;;;13.30;95.00;;;;;;5074211;28;20076;-37
2021/10/19 07:25:28;;;;;;;18.02;12.32;;;13.30;94.90;;;;;;5040516;28;20025;-38
2021/10/19 07:27:56;;;;;;;19.50;11.75;;;13.30;95.00;;;;;;5074440;28;20036;-38
2021/10/19 07:30:23;;;;;;;16.65;10.90;;;13.30;95.00;;;;;;5075098;28;20412;-38
2021/10/19 07:32:48;;;;;;;16.73;11.50;;;13.40;94.90;;;;;;5074350;28;20020;-37
2021/10/19 07:35:16;;;;;;;16.23;9.68;;;13.40;94.90;;;;;;5074324;28;20032;-38
2021/10/19 07:37:42;;;;;;;16.48;11.23;;;13.30;95.00;;;;;;5056197;28;20049;-38
2021/10/19 07:40:09;;;;;;;16.05;10.20;;;13.30;95.10;;;;;;5073874;28;20035;-37
2021/10/19 07:42:36;;;;;;;12.88;9.23;;;13.40;95.10;;;;;;5072978;28;20377;-37
2021/10/19 07:45:07;;;;;;;11.88;8.88;;;13.50;95.20;;;;;;5074010;28;20021;-37
2021/10/19 07:47:37;;;;;;;17.13;12.63;;;13.50;95.20;;;;;;5073801;28;20346;-37
2021/10/19 07:50:03;;;;;;;14.13;10.05;;;13.50;95.20;;;;;;5073699;28;20029;-38
2021/10/19 07:52:28;;;;;;;11.10;8.73;;;13.50;95.10;;;;;;5055568;28;20499;-36
2021/10/19 07:54:54;;;;;;;10.23;8.25;;;13.60;95.20;;;;;;5073553;28;20033;-37
2021/10/19 07:57:20;;;;;;;10.45;7.85;;;13.50;95.20;;;;;;5073548;28;20024;-37
2021/10/19 07:59:45;;;;;;;16.00;8.82;;;13.60;95.20;;;;;;5073445;28;20447;-40
2021/10/19 08:02:11;;;;;;;13.93;9.05;;;13.70;95.30;;;;;;5073787;28;20020;-38
2021/10/19 08:04:37;;;;;;;11.35;8.63;;;13.80;95.20;;;;;;5073756;28;20017;-38
2021/10/19 08:07:02;;;;;;;10.05;8.63;;;13.80;95.00;;;;;;5073855;28;20541;-38
2021/10/19 08:09:28;;;;;;;10.43;8.00;;;13.80;94.90;;;;;;5078221;28;20377;-37
2021/10/19 08:11:53;;;;;;;8.80;7.60;;;13.80;94.80;;;;;;5073454;28;20023;-38
2021/10/19 08:14:19;;;;;;;9.48;7.93;;;13.80;94.70;;;;;;5073239;28;20024;-37
2021/10/19 08:16:45;;;;;;;15.20;9.48;;;13.80;94.80;;;;;;5073198;28;20028;-37
2021/10/19 08:19:11;;;;;;;18.00;7.95;;;13.90;94.90;;;;;;5072742;28;20024;-37
2021/10/19 08:21:37;;;;;;;11.93;8.88;;;13.80;94.80;;;;;;5073656;28;20024;-37
2021/10/19 08:24:03;;;;;;;11.07;8.20;;;13.90;94.80;;;;;;5072713;28;20021;-37
2021/10/19 08:26:30;;;;;;;12.18;8.57;;;14.00;94.70;;;;;;5072823;28;20070;-37
2021/10/19 08:29:03;;;;;;;23.85;17.02;;;14.00;94.70;;;;;;5073490;28;20024;-37
2021/10/19 08:31:30;;;;;;;12.25;9.25;;;14.10;94.70;;;;;;5073318;28;20103;-37
2021/10/19 08:33:57;;;;;;;13.30;9.23;;;14.10;94.50;;;;;;5073215;28;20103;-37
2021/10/19 08:36:23;;;;;;;9.20;7.60;;;14.00;94.60;;;;;;5072655;28;20074;-37
2021/10/19 08:38:50;;;;;;;12.40;9.65;;;14.00;94.70;;;;;;5072792;28;20445;-38
2021/10/19 08:41:16;;;;;;;13.50;10.13;;;14.00;94.80;;;;;;5073592;28;20035;-40
2021/10/19 08:43:43;;;;;;;11.35;9.20;;;14.10;94.90;;;;;;5072796;28;20107;-37
2021/10/19 08:46:14;;;;;;;11.82;8.20;;;14.00;95.00;;;;;;5072658;28;20067;-38
2021/10/19 08:48:40;;;;;;;13.00;8.32;;;14.10;95.10;;;;;;5054815;28;20047;-37
2021/10/19 08:51:07;;;;;;;14.18;9.10;;;14.20;94.90;;;;;;5072785;28;20035;-37
2021/10/19 08:53:38;;;;;;;15.32;9.10;;;14.20;95.00;;;;;;5072777;28;20417;-38
2021/10/19 08:56:04;;;;;;;14.13;8.75;;;14.30;94.90;;;;;;5054939;28;20060;-37
2021/10/19 08:58:31;;;;;;;11.02;8.27;;;14.30;94.80;;;;;;5072646;28;20044;-37
2021/10/19 09:01:05;;;;;;;16.58;13.02;;;14.30;94.80;;;;;;5072857;28;20025;-38
2021/10/19 09:03:30;;;;;;;11.43;8.75;;;14.40;94.80;;;;;;5072702;28;20337;-37
2021/10/19 09:05:56;;;;;;;9.07;6.97;;;14.40;94.70;;;;;;5054421;28;20040;-37
2021/10/19 09:08:24;;;;;;;12.93;8.38;;;14.40;94.60;;;;;;5072515;28;20020;-37
2021/10/19 09:10:50;;;;;;;10.57;7.15;;;14.50;94.80;;;;;;5072729;28;20035;-38
2021/10/19 09:13:17;;;;;;;11.85;7.55;;;14.50;94.60;;;;;;5072386;28;20055;-37
2021/10/19 09:15:46;;;;;;;8.50;6.65;;;14.40;94.60;;;;;;5072669;28;20031;-44
2021/10/19 09:18:20;;;;;;;8.55;6.10;;;14.50;94.90;;;;;;5072110;28;20056;-37
2021/10/19 09:20:55;;;;;;;6.90;5.28;;;14.50;94.80;;;;;;5072269;28;20024;-38
2021/10/19 09:23:24;;;;;;;6.80;5.45;;;14.50;94.90;;;;;;5072725;28;20020;-38
2021/10/19 09:25:52;;;;;;;9.90;5.82;;;14.50;94.90;;;;;;5072804;28;20025;-38
2021/10/19 09:28:41;;;;;;;9.35;6.32;;;14.60;94.80;;;;;;5054943;28;20086;-38
2021/10/19 09:31:08;;;;;;;8.57;5.60;;;14.60;94.80;;;;;;5072746;28;20095;-36
2021/10/19 09:33:34;;;;;;;8.43;6.10;;;14.60;94.80;;;;;;5072451;28;20090;-38
2021/10/19 09:36:00;;;;;;;7.38;5.93;;;14.70;94.90;;;;;;5072534;28;20080;-38
2021/10/19 09:38:27;;;;;;;8.88;5.38;;;14.70;94.80;;;;;;5072462;28;20035;-37
2021/10/19 09:40:56;;;;;;;8.80;6.00;;;14.70;94.80;;;;;;5054011;28;20032;-38
2021/10/19 09:43:25;;;;;;;9.18;5.28;;;14.80;94.70;;;;;;5072001;28;20020;-37
2021/10/19 09:45:54;;;;;;;7.65;5.43;;;14.80;94.70;;;;;;5054566;28;20120;-37
2021/10/19 09:48:31;;;;;;;8.23;6.18;;;14.80;94.50;;;;;;5055232;28;20047;-38
2021/10/19 09:51:02;;;;;;;7.00;5.55;;;14.80;94.50;;;;;;5074285;28;20437;-38
2021/10/19 09:53:29;;;;;;;5.57;4.45;;;14.80;94.60;;;;;;5073077;28;20025;-38
2021/10/19 09:55:56;;;;;;;6.78;4.20;;;14.80;94.50;;;;;;5054636;28;20081;-38
2021/10/19 09:58:25;;;;;;;6.15;5.32;;;14.70;94.60;;;;;;5071930;28;20547;-38
2021/10/19 10:00:51;;;;;;;6.75;6.15;;;14.80;94.90;;;;;;5073107;28;20127;-38
2021/10/19 10:03:17;;;;;;;6.80;5.60;;;14.80;94.70;;;;;;5073021;28;20108;-37
2021/10/19 10:05:43;;;;;;;7.65;6.55;;;14.80;94.70;;;;;;5072852;28;20045;-38
2021/10/19 10:08:18;;;;;;;7.32;5.55;;;14.90;94.70;;;;;;5075702;28;20025;-38
2021/10/19 10:10:44;;;;;;;6.60;4.70;;;14.90;94.80;;;;;;5076157;28;20173;-36
2021/10/19 10:13:16;;;;;;;8.45;6.35;;;14.80;94.80;;;;;;5075687;28;20032;-38
2021/10/19 10:15:42;;;;;;;7.28;5.90;;;14.90;94.90;;;;;;5075603;28;20103;-37
2021/10/19 10:18:10;;;;;;;5.93;4.82;;;14.80;94.70;;;;;;5075326;28;20031;-37
2021/10/19 10:20:42;;;;;;;9.77;5.55;;;14.80;94.90;;;;;;5075872;28;20436;-37
2021/10/19 10:23:22;;;;;;;5.07;4.32;;;14.90;94.80;;;;;;5075340;28;20025;-39
2021/10/19 10:25:50;;;;;;;5.57;4.53;;;14.90;94.80;;;;;;5075652;28;20467;-38
2021/10/19 10:28:33;;;;;;;7.45;4.70;;;15.00;94.80;;;;;;5075381;28;20070;-38
2021/10/19 10:31:01;;;;;;;6.38;5.03;;;15.00;94.50;;;;;;5075867;28;20138;-37
2021/10/19 10:33:38;;;;;;;8.35;5.07;;;15.10;94.50;;;;;;5057880;28;20541;-38
2021/10/19 10:36:07;;;;;;;8.13;5.05;;;15.10;94.20;;;;;;5075771;28;20108;-37
2021/10/19 10:38:34;;;;;;;6.43;5.50;;;15.10;94.10;;;;;;5075698;28;20124;-44
2021/10/19 10:41:12;;;;;;;9.52;5.75;;;15.10;94.20;;;;;;5057397;28;20028;-37
2021/10/19 10:43:39;;;;;;;12.10;6.15;;;15.10;94.30;;;;;;5075469;28;20020;-39
2021/10/19 10:46:14;;;;;;;8.57;5.53;;;15.10;94.40;;;;;;5057151;28;20021;-38
2021/10/19 10:48:40;;;;;;;6.85;4.82;;;15.20;94.30;;;;;;5058009;28;20021;-38
2021/10/19 10:51:08;;;;;;;3.78;3.42;;;15.00;94.50;;;;;;5077104;28;20511;-38
2021/10/19 10:53:44;;;;;;;5.90;5.18;;;14.90;94.60;;;;;;5057250;28;20056;-37
2021/10/19 10:56:11;;;;;;;6.50;4.95;;;15.00;94.90;;;;;;5074687;28;20415;-38
2021/10/19 10:58:39;;;;;;;8.52;5.03;;;15.10;94.80;;;;;;5057572;28;20016;-38
2021/10/19 11:01:19;;;;;;;5.45;4.78;;;15.10;94.70;;;;;;5075158;28;20028;-39
2021/10/19 11:03:47;;;;;;;6.80;5.82;;;15.10;94.70;;;;;;5074755;28;20031;-38
2021/10/19 11:06:18;;;;;;;11.20;7.85;;;15.20;94.80;;;;;;5074766;28;20052;-38
2021/10/19 11:08:46;;;;;;;5.50;4.90;;;15.10;94.60;;;;;;5057017;28;20020;-37
2021/10/19 11:11:20;;;;;;;8.85;5.75;;;15.10;94.70;;;;;;5058251;28;20032;-37
2021/10/19 11:13:59;;;;;;;6.38;4.65;;;15.30;94.70;;;;;;5075157;28;20020;-37
2021/10/19 11:16:28;;;;;;;6.30;5.27;;;15.30;94.50;;;;;;5057011;28;20024;-38
2021/10/19 11:18:54;;;;;;;4.90;4.40;;;15.30;94.40;;;;;;5057581;28;20823;-38
2021/10/19 11:21:20;;;;;;;4.50;4.07;;;15.30;94.40;;;;;;5075272;28;20024;-36
2021/10/19 11:23:48;;;;;;;5.82;4.75;;;15.30;94.40;;;;;;5074768;28;20074;-38
2021/10/19 11:26:14;;;;;;;5.30;4.03;;;15.30;94.50;;;;;;5074465;28;20050;-40
2021/10/19 11:28:42;;;;;;;5.00;4.43;;;15.30;94.60;;;;;;5074665;28;20037;-37
2021/10/19 11:31:08;;;;;;;5.15;4.65;;;15.30;94.60;;;;;;5074821;28;20077;-39
2021/10/19 11:33:39;;;;;;;6.88;4.60;;;15.30;94.60;;;;;;5074298;28;20138;-37
2021/10/19 11:36:06;;;;;;;5.60;4.20;;;15.30;94.80;;;;;;5074164;28;20139;-38
2021/10/19 11:38:39;;;;;;;8.38;4.30;;;15.30;95.00;;;;;;5074509;28;20090;-38
2021/10/19 11:41:17;;;;;;;6.75;4.38;;;15.30;95.00;;;;;;5074511;28;20031;-37
2021/10/19 11:43:45;;;;;;;5.38;4.40;;;15.30;95.20;;;;;;5074210;28;20024;-38
2021/10/19 11:46:14;;;;;;;5.47;4.28;;;15.30;95.20;;;;;;5074316;28;20098;-38
2021/10/19 11:48:41;;;;;;;5.07;3.72;;;15.30;95.20;;;;;;5055868;28;20082;-37
2021/10/19 11:51:15;;;;;;;7.95;4.93;;;15.30;95.30;;;;;;5074059;28;20029;-38
2021/10/19 11:53:42;;;;;;;4.78;4.00;;;15.30;95.40;;;;;;5073951;28;20028;-38
2021/10/19 11:56:10;;;;;;;5.05;4.53;;;15.50;95.50;;;;;;5073514;28;20025;-44
2021/10/19 11:59:01;;;;;;;4.43;4.03;;;15.50;95.30;;;;;;5073864;28;20032;-38
2021/10/19 12:01:28;;;;;;;4.60;4.07;;;15.40;95.20;;;;;;5073028;28;20032;-38
2021/10/19 12:03:55;;;;;;;6.32;5.47;;;15.40;95.30;;;;;;5055176;28;20035;-37
2021/10/19 12:06:27;;;;;;;9.43;5.20;;;15.50;95.50;;;;;;5073306;28;20053;-37
2021/10/19 12:08:54;;;;;;;9.73;6.20;;;15.40;95.50;;;;;;5055687;28;20017;-37
2021/10/19 12:11:30;;;;;;;10.77;7.32;;;15.50;95.60;;;;;;5073234;28;20162;-37
2021/10/19 12:13:57;;;;;;;10.80;7.10;;;15.50;95.60;;;;;;5073072;28;20561;-38
2021/10/19 12:16:30;;;;;;;8.05;7.15;;;15.60;95.30;;;;;;5073026;28;20024;-38
2021/10/19 12:18:58;;;;;;;8.00;7.18;;;15.50;95.30;;;;;;5073214;28;20024;-36
2021/10/19 12:21:29;;;;;;;10.90;8.13;;;15.60;95.40;;;;;;5054782;28;20507;-37
2021/10/19 12:23:57;;;;;;;11.27;8.65;;;15.60;95.40;;;;;;5072855;28;20070;-37
2021/10/19 12:26:26;;;;;;;10.68;8.85;;;15.70;95.40;;;;;;5072966;28;20020;-37
2021/10/19 12:28:54;;;;;;;10.32;7.90;;;15.70;95.20;;;;;;5072777;28;20028;-37
2021/10/19 12:31:21;;;;;;;12.85;8.98;;;15.70;95.10;;;;;;5072934;28;20422;-37
2021/10/19 12:33:55;;;;;;;11.10;9.05;;;15.80;95.20;;;;;;5073394;28;20052;-38